Time;durP1;ratioP1;P1;durP2;ratioP2;P2;SDS_P1;SDS_P2;PMS_P1;PMS_P2;Temp;Humidity;BMP_temperature;BMP_pressure;BME280_temperature;BME280_humidity;BME280_pressure;Samples;Min_cycle;Max_cycle;Signal;HPM_P1;HPM_P2
2021/03/19 00:00:07;;;;;;;27.80;17.70;;;;;;;-0.78;93.04;96191.34;5070452;28;20485;-74
2021/03/19 00:02:37;;;;;;;25.10;17.20;;;;;;;-0.83;93.23;96183.06;5078948;28;20998;-74
2021/03/19 00:05:06;;;;;;;27.87;17.30;;;;;;;-0.80;93.20;96178.56;5077411;28;20028;-75
2021/03/19 00:07:46;;;;;;;26.60;18.40;;;;;;;-0.81;93.38;96176.88;5075324;28;21257;-74
2021/03/19 00:10:15;;;;;;;29.50;20.03;;;;;;;-0.80;93.75;96180.31;5072040;28;21327;-74
2021/03/19 00:12:41;;;;;;;28.43;17.60;;;;;;;-0.77;93.30;96175.78;5065452;28;20473;-74
2021/03/19 00:15:08;;;;;;;26.97;19.00;;;;;;;-0.65;93.40;96175.97;5099005;28;20536;-74
2021/03/19 00:17:34;;;;;;;28.30;17.83;;;;;;;-0.77;93.04;96168.03;5085674;28;20485;-74
2021/03/19 00:20:00;;;;;;;29.97;18.03;;;;;;;-0.75;93.67;96166.19;5067045;28;20477;-74
2021/03/19 00:22:25;;;;;;;28.87;17.37;;;;;;;-0.81;93.43;96166.53;5070233;28;20035;-75
2021/03/19 00:24:51;;;;;;;27.90;17.93;;;;;;;-0.78;93.44;96166.34;5073393;28;20514;-74
2021/03/19 00:27:17;;;;;;;26.90;17.07;;;;;;;-0.85;93.82;96164.25;5073143;28;20033;-74
2021/03/19 00:29:42;;;;;;;27.03;17.93;;;;;;;-0.82;93.94;96159.72;5068361;28;20092;-75
2021/03/19 00:32:08;;;;;;;28.00;16.97;;;;;;;-0.85;93.63;96159.09;5069499;28;20040;-75
2021/03/19 00:34:34;;;;;;;27.23;17.37;;;;;;;-0.82;93.27;96157.16;5066820;28;20021;-75
2021/03/19 00:36:59;;;;;;;24.53;17.40;;;;;;;-0.83;93.59;96158.06;5073160;28;20028;-74
2021/03/19 00:39:25;;;;;;;28.57;17.17;;;;;;;-0.87;93.49;96159.19;5072967;28;20522;-74
2021/03/19 00:41:52;;;;;;;25.47;16.90;;;;;;;-0.88;93.59;96156.69;5070078;28;20041;-74
2021/03/19 00:44:17;;;;;;;26.07;16.10;;;;;;;-0.89;93.38;96163.59;5078446;28;20029;-74
2021/03/19 00:46:43;;;;;;;27.43;16.13;;;;;;;-0.89;93.47;96158.44;5077656;28;20937;-76
2021/03/19 00:49:09;;;;;;;29.43;16.87;;;;;;;-0.92;93.82;96150.03;5054042;28;20514;-74
2021/03/19 00:51:34;;;;;;;27.47;16.47;;;;;;;-0.82;93.45;96156.31;5076093;28;20118;-74
2021/03/19 00:54:00;;;;;;;27.03;15.77;;;;;;;-0.86;93.63;96155.66;5071642;28;20055;-74
2021/03/19 00:56:26;;;;;;;25.30;16.03;;;;;;;-0.82;93.04;96154.56;5072852;28;20478;-74
2021/03/19 00:58:51;;;;;;;26.70;17.27;;;;;;;-0.83;93.09;96154.66;5069441;28;20067;-76
2021/03/19 01:01:17;;;;;;;26.00;16.37;;;;;;;-0.85;93.52;96153.91;5072109;28;20177;-74
2021/03/19 01:03:43;;;;;;;29.13;17.90;;;;;;;-0.85;93.68;96154.75;5072331;28;20047;-74
2021/03/19 01:06:10;;;;;;;30.93;17.50;;;;;;;-0.86;93.87;96150.50;5076046;28;20028;-74
2021/03/19 01:08:36;;;;;;;31.37;17.67;;;;;;;-0.77;93.63;96142.22;5074331;28;20186;-74
2021/03/19 01:11:02;;;;;;;28.93;19.20;;;;;;;-0.79;93.51;96159.53;5076475;28;20537;-74
2021/03/19 01:13:28;;;;;;;27.13;16.80;;;;;;;-0.85;93.34;96152.16;5054739;28;20020;-74
2021/03/19 01:15:55;;;;;;;30.27;19.07;;;;;;;-0.78;93.33;96153.44;5067266;28;20455;-75
2021/03/19 01:18:25;;;;;;;29.27;17.60;;;;;;;-0.80;93.00;96154.50;5071349;28;20054;-75
2021/03/19 01:20:51;;;;;;;29.70;19.33;;;;;;;-0.78;92.86;96155.22;5069851;28;20450;-75
2021/03/19 01:23:17;;;;;;;26.50;18.40;;;;;;;-0.77;93.02;96157.72;5081864;28;20467;-74
2021/03/19 01:25:43;;;;;;;28.93;18.40;;;;;;;-0.87;92.87;96156.59;5072544;28;20040;-75
2021/03/19 01:28:09;;;;;;;29.10;19.27;;;;;;;-0.78;93.04;96158.63;5080611;28;20535;-74
2021/03/19 01:30:38;;;;;;;28.57;19.90;;;;;;;-0.81;93.04;96158.78;5073288;28;20032;-74
2021/03/19 01:33:05;;;;;;;29.27;19.37;;;;;;;-0.89;93.38;96142.13;5086081;28;20517;-74
2021/03/19 01:35:34;;;;;;;29.73;18.47;;;;;;;-0.92;93.31;96142.31;5083290;28;20783;-75
2021/03/19 01:38:00;;;;;;;29.53;19.37;;;;;;;-0.99;93.54;96140.06;5073585;28;20512;-74
2021/03/19 01:40:31;;;;;;;31.40;20.03;;;;;;;-0.99;93.35;96134.91;5069749;28;20435;-74
2021/03/19 01:43:13;;;;;;;32.00;20.53;;;;;;;-0.98;93.51;96133.16;5067434;28;20028;-74
2021/03/19 01:46:16;;;;;;;27.37;18.60;;;;;;;-0.97;93.56;96133.09;5068644;28;21011;-75
2021/03/19 01:49:19;;;;;;;30.87;18.03;;;;;;;-0.90;93.74;96132.72;5077894;28;20458;-75
2021/03/19 01:52:23;;;;;;;31.27;18.60;;;;;;;-0.92;94.09;96122.47;5076152;28;20450;-74
2021/03/19 01:55:26;;;;;;;30.43;19.77;;;;;;;-0.90;93.68;96112.91;5071524;28;20426;-74
2021/03/19 01:58:29;;;;;;;30.23;19.40;;;;;;;-0.88;94.11;96125.69;5058980;28;20458;-74
2021/03/19 02:01:32;;;;;;;29.10;19.53;;;;;;;-0.90;93.67;96124.97;5070621;28;20991;-74
2021/03/19 02:04:35;;;;;;;32.23;20.50;;;;;;;-0.87;94.09;96117.03;5076577;28;20463;-74
2021/03/19 02:07:39;;;;;;;31.70;19.20;;;;;;;-0.84;94.18;96112.53;5076464;28;20472;-74
2021/03/19 02:10:42;;;;;;;30.33;18.17;;;;;;;-0.80;93.86;96111.41;5069456;28;20465;-75
2021/03/19 02:13:45;;;;;;;31.20;19.40;;;;;;;-0.84;93.99;96117.69;5068824;28;20462;-74
2021/03/19 02:16:48;;;;;;;34.93;20.13;;;;;;;-0.86;93.68;96121.28;5069862;28;20538;-74
2021/03/19 02:19:51;;;;;;;33.73;21.03;;;;;;;-0.89;93.94;96126.63;5066674;28;21066;-74
2021/03/19 02:22:54;;;;;;;29.97;19.00;;;;;;;-0.83;93.76;96129.69;5068393;28;20473;-74
2021/03/19 02:25:57;;;;;;;31.97;20.33;;;;;;;-0.77;94.57;96131.91;5087481;28;20516;-75
2021/03/19 02:29:02;;;;;;;31.37;19.37;;;;;;;-0.75;94.19;96134.38;5064703;28;20508;-74
2021/03/19 02:32:06;;;;;;;28.00;18.15;;;;;;;-0.75;94.13;96129.22;5078116;28;20517;-74
2021/03/19 02:34:36;;;;;;;29.60;18.83;;;;;;;-0.73;93.88;96128.19;5069839;28;20636;-75
2021/03/19 02:37:02;;;;;;;30.10;18.27;;;;;;;-0.77;93.34;96131.91;5078256;28;20046;-74
2021/03/19 02:39:27;;;;;;;30.50;18.97;;;;;;;-0.74;93.93;96131.72;5066442;28;20456;-75
2021/03/19 02:41:53;;;;;;;31.87;20.07;;;;;;;-0.71;93.75;96130.66;5073458;28;20105;-75
2021/03/19 02:44:19;;;;;;;29.60;19.63;;;;;;;-0.71;93.22;96131.50;5066578;28;20430;-74
2021/03/19 02:46:44;;;;;;;28.30;19.63;;;;;;;-0.67;93.53;96128.72;5068456;28;20029;-74
2021/03/19 02:49:10;;;;;;;30.70;18.47;;;;;;;-0.75;93.08;96124.88;5074219;28;20165;-74
2021/03/19 02:51:36;;;;;;;29.73;21.03;;;;;;;-0.77;92.93;96121.56;5077565;28;20025;-74
2021/03/19 02:54:02;;;;;;;31.20;19.70;;;;;;;-0.71;93.61;96123.75;5079785;28;20045;-74
2021/03/19 02:56:27;;;;;;;26.03;17.83;;;;;;;-0.68;94.00;96125.31;5048099;28;20041;-74
2021/03/19 02:58:53;;;;;;;32.27;20.20;;;;;;;-0.68;93.72;96120.16;5072121;28;20463;-75
2021/03/19 03:01:19;;;;;;;32.40;21.37;;;;;;;-0.75;92.99;96109.38;5071138;28;20028;-74
2021/03/19 03:03:44;;;;;;;32.60;20.80;;;;;;;-0.77;93.52;96112.97;5065927;28;20029;-75
2021/03/19 03:06:10;;;;;;;31.73;19.60;;;;;;;-0.73;93.62;96115.28;5069432;28;20082;-74
2021/03/19 03:08:36;;;;;;;28.53;19.43;;;;;;;-0.67;93.46;96111.50;5071317;28;20040;-74
2021/03/19 03:11:03;;;;;;;30.70;19.43;;;;;;;-0.68;93.61;96116.75;5078277;28;20024;-74
2021/03/19 03:13:29;;;;;;;30.67;19.80;;;;;;;-0.69;93.35;96115.09;5073215;28;20086;-74
2021/03/19 03:15:55;;;;;;;34.37;19.90;;;;;;;-0.65;93.54;96113.97;5066316;28;20486;-74
2021/03/19 03:18:21;;;;;;;29.30;19.50;;;;;;;-0.72;93.40;96116.94;5055294;28;20553;-75
2021/03/19 03:20:51;;;;;;;25.23;18.27;;;;;;;-0.65;93.72;96111.41;5068811;28;20092;-74
2021/03/19 03:23:19;;;;;;;30.17;20.07;;;;;;;-0.63;93.60;96117.31;5064797;28;20459;-74
2021/03/19 03:25:46;;;;;;;34.90;20.50;;;;;;;-0.65;93.49;96111.41;5067851;28;20573;-75
2021/03/19 03:28:12;;;;;;;30.47;18.67;;;;;;;-0.63;93.90;96114.72;5073892;28;20491;-74
2021/03/19 03:30:42;;;;;;;27.43;19.20;;;;;;;-0.64;93.40;96116.47;5071539;28;21143;-74
2021/03/19 03:33:09;;;;;;;29.03;18.63;;;;;;;-0.63;93.79;96112.16;5059133;28;20451;-75
2021/03/19 03:35:34;;;;;;;30.97;19.90;;;;;;;-0.67;93.12;96114.09;5069761;28;20453;-75
2021/03/19 03:38:03;;;;;;;29.07;19.03;;;;;;;-0.69;93.36;96113.34;5071233;28;20454;-74
2021/03/19 03:40:36;;;;;;;34.10;20.63;;;;;;;-0.73;93.36;96107.53;5068779;28;20450;-74
2021/03/19 03:43:03;;;;;;;30.73;20.13;;;;;;;-0.74;93.28;96108.47;5067694;28;20459;-74
2021/03/19 03:45:28;;;;;;;32.03;20.33;;;;;;;-0.69;93.28;96102.19;5074006;28;20462;-74
2021/03/19 03:47:54;;;;;;;31.80;19.63;;;;;;;-0.75;93.75;96098.22;5049849;28;20469;-74
2021/03/19 03:50:41;;;;;;;32.97;20.47;;;;;;;-0.68;93.93;96099.50;5069008;28;20044;-75
2021/03/19 03:53:09;;;;;;;29.40;20.03;;;;;;;-0.70;93.92;96103.94;5063792;28;20036;-75
2021/03/19 03:55:37;;;;;;;33.43;21.50;;;;;;;-0.71;93.97;96095.34;5071593;28;20458;-75
2021/03/19 03:58:03;;;;;;;33.70;21.33;;;;;;;-0.71;93.63;96099.69;5067916;28;20459;-75
2021/03/19 04:00:30;;;;;;;35.40;20.77;;;;;;;-0.69;93.46;96100.44;5076510;28;20511;-75
2021/03/19 04:02:58;;;;;;;31.03;21.63;;;;;;;-0.78;93.97;96103.56;5067196;28;20472;-75
2021/03/19 04:05:27;;;;;;;35.40;22.53;;;;;;;-0.75;93.77;96099.03;5064039;28;20467;-75
2021/03/19 04:07:53;;;;;;;34.30;21.50;;;;;;;-0.77;93.42;96103.50;5078231;28;20470;-75
2021/03/19 04:10:20;;;;;;;32.43;20.80;;;;;;;-0.76;93.87;96110.31;5076851;28;20454;-75
2021/03/19 04:12:46;;;;;;;34.60;22.17;;;;;;;-0.72;93.67;96106.59;5070357;28;20461;-75
2021/03/19 04:15:13;;;;;;;30.33;20.60;;;;;;;-0.78;93.91;96096.66;5076653;28;20439;-75
2021/03/19 04:17:42;;;;;;;32.53;21.77;;;;;;;-0.79;93.40;96102.75;5067789;28;20465;-75
2021/03/19 04:20:09;;;;;;;32.57;21.23;;;;;;;-0.78;93.92;96104.38;5067787;28;20447;-75
2021/03/19 04:22:35;;;;;;;33.63;22.30;;;;;;;-0.78;93.31;96106.16;5089288;28;20451;-75
2021/03/19 04:25:01;;;;;;;34.30;22.83;;;;;;;-0.75;93.64;96100.81;5064725;28;20447;-75
2021/03/19 04:27:30;;;;;;;37.23;23.13;;;;;;;-0.74;93.73;96102.44;5077737;28;20490;-75
2021/03/19 04:29:57;;;;;;;37.30;23.93;;;;;;;-0.75;93.73;96100.81;5071797;28;20035;-75
2021/03/19 04:32:24;;;;;;;37.97;23.63;;;;;;;-0.79;93.68;96107.09;5072407;28;20562;-75
2021/03/19 04:34:51;;;;;;;37.00;22.90;;;;;;;-0.75;93.45;96104.22;5069447;28;20467;-75
2021/03/19 04:37:18;;;;;;;34.10;21.43;;;;;;;-0.78;93.40;96109.56;5073214;28;20474;-74
2021/03/19 04:39:45;;;;;;;37.53;24.10;;;;;;;-0.77;93.46;96107.78;5078411;28;20507;-75
2021/03/19 04:42:13;;;;;;;34.93;22.90;;;;;;;-0.78;94.03;96109.56;5094804;28;20450;-75
2021/03/19 04:44:41;;;;;;;36.97;23.93;;;;;;;-0.77;94.12;96115.53;5078972;28;21369;-75
2021/03/19 04:47:08;;;;;;;41.73;25.27;;;;;;;-0.79;94.08;96113.06;5077777;28;20471;-75
2021/03/19 04:49:35;;;;;;;42.57;26.50;;;;;;;-0.83;93.66;96111.59;5066492;28;20598;-75
2021/03/19 04:52:02;;;;;;;41.07;26.03;;;;;;;-0.83;94.33;96105.63;5078528;28;21123;-75
2021/03/19 04:54:29;;;;;;;42.20;25.83;;;;;;;-0.87;93.82;96111.88;5080523;28;20483;-75
2021/03/19 04:56:55;;;;;;;37.67;25.00;;;;;;;-0.89;94.12;96114.53;5074440;28;20970;-75
2021/03/19 04:59:21;;;;;;;37.90;25.50;;;;;;;-0.84;93.86;96117.69;5076111;28;20469;-75
2021/03/19 05:01:54;;;;;;;40.90;25.87;;;;;;;-0.87;93.55;96117.03;5070458;28;20445;-75
2021/03/19 05:04:23;;;;;;;;;;;;;;;-0.99;93.34;96121.19;5079824;28;20458;-75
2021/03/19 05:06:51;;;;;;;69.87;34.20;;;;;;;-1.01;94.28;96120.44;5071960;28;20323;-75
2021/03/19 05:09:17;;;;;;;92.37;42.43;;;;;;;-0.90;93.94;96117.22;5075240;28;20446;-75
2021/03/19 05:11:44;;;;;;;63.80;32.43;;;;;;;-0.96;93.92;96127.00;5075787;28;20512;-75
2021/03/19 05:14:10;;;;;;;46.80;28.13;;;;;;;-0.94;93.87;96134.63;5077854;28;20461;-75
2021/03/19 05:16:36;;;;;;;47.70;28.17;;;;;;;-1.01;94.06;96126.41;5073081;28;20430;-74
2021/03/19 05:19:02;;;;;;;45.90;29.10;;;;;;;-1.06;93.86;96125.06;5071667;28;20036;-75
2021/03/19 05:21:28;;;;;;;43.93;28.90;;;;;;;-1.05;94.18;96131.88;5068900;28;20028;-75
2021/03/19 05:23:54;;;;;;;40.97;27.20;;;;;;;-1.05;94.38;96132.69;5074116;28;20465;-75
2021/03/19 05:26:19;;;;;;;41.43;27.30;;;;;;;-1.02;94.02;96126.53;5071819;28;20021;-75
2021/03/19 05:28:45;;;;;;;38.27;25.53;;;;;;;-1.00;93.90;96127.28;5074382;28;20066;-75
2021/03/19 05:31:11;;;;;;;46.73;28.23;;;;;;;-1.01;94.02;96129.00;5088177;28;20059;-75
2021/03/19 05:33:44;;;;;;;45.77;26.37;;;;;;;-1.06;93.97;96128.47;5067499;28;20037;-74
2021/03/19 05:36:11;;;;;;;45.20;27.53;;;;;;;-1.10;93.74;96129.56;5070109;28;20028;-74
2021/03/19 05:38:37;;;;;;;43.90;26.77;;;;;;;-1.02;93.95;96123.94;5072360;28;20490;-74
2021/03/19 05:41:03;;;;;;;42.00;26.43;;;;;;;-1.05;94.20;96121.53;5075845;28;20498;-75
2021/03/19 05:43:39;;;;;;;40.87;26.27;;;;;;;-1.04;93.65;96124.06;5084231;28;20041;-74
2021/03/19 05:46:05;;;;;;;42.40;26.30;;;;;;;-1.05;93.96;96130.13;5080202;28;20421;-75
2021/03/19 05:48:38;;;;;;;42.27;27.63;;;;;;;-1.07;94.12;96131.16;5068541;28;20490;-75
2021/03/19 05:51:05;;;;;;;44.20;27.93;;;;;;;-1.02;94.09;96129.09;5066270;28;20489;-75
2021/03/19 05:53:41;;;;;;;42.70;27.30;;;;;;;-0.94;94.12;96139.78;5079735;28;20898;-75
2021/03/19 05:56:15;;;;;;;44.03;27.07;;;;;;;-0.92;93.57;96135.38;5057895;28;20486;-74
2021/03/19 05:58:43;;;;;;;40.20;26.07;;;;;;;-0.90;93.37;96141.28;5070821;28;20612;-75
2021/03/19 06:01:09;;;;;;;43.33;27.40;;;;;;;-0.85;93.60;96143.59;5071251;28;20458;-76
2021/03/19 06:03:34;;;;;;;46.13;26.80;;;;;;;-0.93;93.24;96140.66;5074498;28;20470;-75
2021/03/19 06:06:06;;;;;;;44.00;26.90;;;;;;;-0.81;93.25;96148.47;5071699;28;20021;-75
2021/03/19 06:08:37;;;;;;;42.97;27.20;;;;;;;-0.82;93.08;96139.06;5076091;28;20787;-75
2021/03/19 06:11:13;;;;;;;42.83;27.83;;;;;;;-0.77;93.02;96136.19;5062726;28;20458;-74
2021/03/19 06:13:54;;;;;;;47.67;28.17;;;;;;;-0.78;92.86;96155.22;5078482;28;20465;-74
2021/03/19 06:16:33;;;;;;;45.10;27.97;;;;;;;-0.63;92.69;96140.56;5067777;28;20475;-74
2021/03/19 06:19:02;;;;;;;45.43;27.67;;;;;;;-0.59;92.11;96150.59;5071073;28;20473;-75
2021/03/19 06:21:34;;;;;;;42.47;28.10;;;;;;;-0.41;92.08;96151.22;5084794;28;20462;-75
2021/03/19 06:24:20;;;;;;;60.90;36.57;;;;;;;-0.37;91.31;96155.28;5070135;28;20860;-76
2021/03/19 06:26:47;;;;;;;44.17;27.70;;;;;;;-0.34;91.29;96152.50;5072203;28;20462;-75
2021/03/19 06:29:43;;;;;;;40.93;27.83;;;;;;;-0.27;90.87;96152.94;5068368;28;20475;-75
2021/03/19 06:32:20;;;;;;;48.13;28.60;;;;;;;-0.20;90.32;96155.97;5084518;28;20476;-75
2021/03/19 06:35:06;;;;;;;44.73;27.50;;;;;;;-0.27;90.27;96150.38;5069724;28;20549;-76
2021/03/19 06:37:40;;;;;;;39.13;25.83;;;;;;;-0.21;90.88;96149.16;5077760;28;20484;-75
2021/03/19 06:40:30;;;;;;;45.22;27.95;;;;;;;-0.16;90.59;96153.13;5065243;28;20490;-75
2021/03/19 06:43:19;;;;;;;45.63;28.70;;;;;;;-0.09;90.27;96151.00;5067681;28;20443;-75
2021/03/19 06:46:06;;;;;;;40.00;26.80;;;;;;;-0.09;89.65;96154.41;5072803;28;20499;-75
2021/03/19 06:48:45;;;;;;;35.17;24.40;;;;;;;-0.26;90.56;96157.22;5066957;28;20471;-75
2021/03/19 06:51:17;;;;;;;40.37;26.17;;;;;;;-0.27;90.80;96160.69;5068989;28;20593;-74
2021/03/19 06:53:58;;;;;;;30.42;20.35;;;;;;;-0.22;90.59;96158.69;5073655;28;20467;-75
2021/03/19 06:56:25;;;;;;;38.20;24.07;;;;;;;-0.28;90.53;96161.63;5082067;28;20036;-75
2021/03/19 06:58:51;;;;;;;41.90;24.87;;;;;;;-0.17;90.97;96154.03;5076052;28;20458;-75
2021/03/19 07:01:23;;;;;;;43.53;27.57;;;;;;;-0.16;91.07;96157.47;5063667;28;20454;-77
2021/03/19 07:04:16;;;;;;;43.03;27.03;;;;;;;-0.11;90.44;96160.59;5069507;28;20832;-74
2021/03/19 07:06:51;;;;;;;40.80;25.05;;;;;;;-0.11;90.34;96153.66;5087797;28;20588;-75
2021/03/19 07:09:42;;;;;;;41.83;26.40;;;;;;;-0.04;90.60;96156.69;5062772;28;20029;-76
2021/03/19 07:12:14;;;;;;;41.23;26.30;;;;;;;0.08;89.33;96155.09;5043339;28;20451;-75
2021/03/19 07:15:10;;;;;;;40.30;26.93;;;;;;;0.12;89.66;96161.72;5078716;28;20466;-75
2021/03/19 07:17:53;;;;;;;38.43;24.40;;;;;;;0.09;88.96;96167.09;5083626;28;20454;-75
2021/03/19 07:20:57;;;;;;;28.98;18.77;;;;;;;0.19;89.56;96173.34;5064190;28;20906;-76
2021/03/19 07:23:30;;;;;;;36.67;25.37;;;;;;;0.25;89.19;96166.97;5070705;28;20443;-76
2021/03/19 07:26:24;;;;;;;33.53;23.00;;;;;;;0.14;89.07;96171.06;5064260;28;20990;-75
2021/03/19 07:28:59;;;;;;;;;;;;;;;0.21;89.44;96177.50;5061850;28;20028;-76
2021/03/19 07:31:46;;;;;;;36.83;23.50;;;;;;;0.29;89.63;96174.41;5075182;28;19912;-75
2021/03/19 07:34:36;;;;;;;37.33;24.33;;;;;;;0.20;89.24;96183.59;5068439;28;20458;-76
2021/03/19 07:37:19;;;;;;;37.93;24.73;;;;;;;0.21;90.03;96190.44;5044507;28;20490;-75
2021/03/19 07:39:51;;;;;;;35.30;24.33;;;;;;;0.15;90.06;96184.81;5083837;28;20474;-75
2021/03/19 07:42:33;;;;;;;34.93;23.83;;;;;;;0.19;89.87;96192.28;5079109;28;20433;-75
2021/03/19 07:45:25;;;;;;;37.50;24.50;;;;;;;0.11;89.32;96191.13;5057717;28;21153;-76
2021/03/19 07:48:00;;;;;;;37.07;22.97;;;;;;;0.05;89.86;96200.06;5071308;28;20454;-76
2021/03/19 07:50:43;;;;;;;36.70;23.97;;;;;;;0.21;90.07;96190.44;5074921;28;20473;-76
2021/03/19 07:53:12;;;;;;;;;;;;;;;0.34;89.81;96192.25;5073178;28;20458;-75
2021/03/19 07:55:57;;;;;;;34.37;22.73;;;;;;;0.40;89.54;96189.25;5068678;28;19936;-76
2021/03/19 07:58:41;;;;;;;32.73;21.50;;;;;;;0.50;88.69;96192.06;5066945;28;20513;-76
2021/03/19 08:01:25;;;;;;;33.40;21.67;;;;;;;0.45;88.60;96190.63;5068167;28;20470;-76
2021/03/19 08:04:12;;;;;;;31.83;22.03;;;;;;;0.57;88.16;96196.78;5060302;28;20471;-75
2021/03/19 08:06:45;;;;;;;31.40;20.20;;;;;;;0.45;88.51;96194.97;5079360;28;20462;-75
2021/03/19 08:09:39;;;;;;;32.20;22.25;;;;;;;0.49;88.41;96195.59;5068857;28;20475;-75
2021/03/19 08:12:22;;;;;;;32.47;20.90;;;;;;;0.45;88.31;96194.97;5072313;28;20017;-76
2021/03/19 08:15:34;;;;;;;32.50;22.10;;;;;;;0.59;87.58;96192.31;5079614;28;20031;-75
2021/03/19 08:18:16;;;;;;;32.33;21.83;;;;;;;0.76;88.12;96198.97;5064967;28;20553;-75
2021/03/19 08:21:06;;;;;;;33.70;22.07;;;;;;;0.96;86.66;96194.28;5062300;28;21006;-75
2021/03/19 08:24:14;;;;;;;44.57;27.93;;;;;;;0.86;85.95;96197.44;5071961;28;20446;-75
2021/03/19 08:26:47;;;;;;;31.67;20.57;;;;;;;1.20;85.98;96194.41;5058631;28;20474;-75
2021/03/19 08:29:24;;;;;;;29.07;20.17;;;;;;;1.38;84.79;96201.78;5083702;28;20608;-77
2021/03/19 08:32:13;;;;;;;28.10;18.90;;;;;;;1.28;84.28;96202.50;5075154;28;20508;-81
2021/03/19 08:34:45;;;;;;;28.30;19.37;;;;;;;1.52;84.85;96212.97;5058901;28;20510;-78
2021/03/19 08:37:26;;;;;;;25.17;17.07;;;;;;;1.39;83.43;96206.00;5068728;28;20545;-75
2021/03/19 08:39:54;;;;;;;29.47;18.70;;;;;;;1.25;84.08;96210.47;5074715;28;20553;-75
2021/03/19 08:42:37;;;;;;;25.93;18.57;;;;;;;1.28;84.66;96205.91;5086103;28;20526;-75
2021/03/19 08:45:15;;;;;;;24.57;16.57;;;;;;;1.33;86.13;96210.78;5079769;28;20471;-75
2021/03/19 08:47:46;;;;;;;22.67;15.93;;;;;;;1.22;85.70;96208.91;5079714;28;20489;-75
2021/03/19 08:50:21;;;;;;;23.80;16.63;;;;;;;1.45;86.31;96214.31;5079998;28;20573;-76
2021/03/19 08:53:14;;;;;;;19.00;12.73;;;;;;;1.00;85.73;96209.50;5080931;28;20869;-76
2021/03/19 08:55:46;;;;;;;19.20;12.00;;;;;;;0.93;87.13;96219.41;5069335;28;20447;-76
2021/03/19 08:58:30;;;;;;;15.83;11.13;;;;;;;0.94;86.78;96215.91;5077733;28;20477;-76
2021/03/19 09:00:57;;;;;;;;;;;;;;;0.78;86.32;96222.19;5071336;28;20463;-76
2021/03/19 09:03:52;;;;;;;21.37;13.27;;;;;;;0.66;86.90;96211.69;5096387;28;19928;-76
2021/03/19 09:06:22;;;;;;;19.23;12.97;;;;;;;0.75;86.90;96212.88;5068098;28;20458;-76
2021/03/19 09:08:58;;;;;;;23.23;14.47;;;;;;;1.06;87.77;96216.03;5080796;28;20508;-76
2021/03/19 09:11:50;;;;;;;26.60;15.67;;;;;;;1.13;87.49;96214.69;5081464;28;20475;-76
2021/03/19 09:14:35;;;;;;;24.17;16.37;;;;;;;0.94;86.57;96222.88;5058211;28;20492;-75
2021/03/19 09:17:00;;;;;;;27.10;17.70;;;;;;;1.07;87.31;96220.28;5057053;28;20454;-76
2021/03/19 09:19:32;;;;;;;28.20;19.50;;;;;;;0.84;87.29;96233.00;5082719;28;20462;-76
2021/03/19 09:22:24;;;;;;;27.80;17.83;;;;;;;1.00;88.73;96232.78;5075156;28;20025;-75
2021/03/19 09:25:09;;;;;;;25.90;18.27;;;;;;;1.08;88.50;96232.31;5067615;28;20462;-75
2021/03/19 09:27:37;;;;;;;27.03;18.17;;;;;;;0.89;88.35;96236.09;5086521;28;20733;-75
2021/03/19 09:30:21;;;;;;;29.23;19.90;;;;;;;1.06;88.73;96237.56;5075397;28;20465;-76
2021/03/19 09:32:52;;;;;;;26.97;19.67;;;;;;;0.88;88.92;96246.56;5054048;28;20472;-75
2021/03/19 09:35:37;;;;;;;29.17;20.57;;;;;;;1.03;89.96;96237.78;5058948;28;20489;-76
2021/03/19 09:38:39;;;;;;;30.00;19.90;;;;;;;0.94;89.51;96241.81;5071338;28;20990;-75
2021/03/19 09:41:08;;;;;;;25.43;18.03;;;;;;;0.67;89.85;96248.75;5028799;28;20476;-75
2021/03/19 09:43:50;;;;;;;31.73;20.60;;;;;;;0.67;91.08;96241.84;5058487;28;20451;-76
2021/03/19 09:46:26;;;;;;;35.37;21.83;;;;;;;1.03;90.62;96247.31;5078481;28;20450;-75
2021/03/19 09:49:08;;;;;;;31.07;20.83;;;;;;;1.25;89.00;96250.16;5063326;28;20532;-76
2021/03/19 09:51:46;;;;;;;27.77;19.00;;;;;;;1.64;88.17;96249.25;5082993;28;20502;-75
2021/03/19 09:54:35;;;;;;;28.70;19.50;;;;;;;2.15;85.24;96257.88;5075040;28;20458;-78
2021/03/19 09:57:20;;;;;;;27.93;17.47;;;;;;;2.38;84.32;96248.50;5066461;28;20454;-76
2021/03/19 09:59:54;;;;;;;23.20;14.30;;;;;;;2.40;82.52;96257.00;5081481;28;20559;-76
2021/03/19 10:02:24;;;;;;;22.97;14.27;;;;;;;2.29;81.78;96252.56;5059509;28;20460;-76
2021/03/19 10:04:52;;;;;;;22.47;14.50;;;;;;;2.36;81.87;96257.22;5053262;28;21018;-76
2021/03/19 10:07:22;;;;;;;23.00;14.80;;;;;;;2.62;82.67;96253.72;5067757;28;20871;-76
2021/03/19 10:09:49;;;;;;;17.13;12.23;;;;;;;2.22;81.44;96253.94;5072541;28;20498;-76
2021/03/19 10:12:19;;;;;;;20.37;14.70;;;;;;;2.07;83.12;96261.84;5060776;28;20498;-76
2021/03/19 10:14:56;;;;;;;20.20;13.00;;;;;;;2.22;83.00;96259.97;5070975;28;20451;-77
2021/03/19 10:17:30;;;;;;;19.23;13.03;;;;;;;2.17;84.40;96256.84;5078613;28;20462;-76
2021/03/19 10:20:22;;;;;;;17.07;10.90;;;;;;;2.42;83.55;96250.78;5066712;28;20489;-76
2021/03/19 10:22:51;;;;;;;18.60;10.90;;;;;;;2.04;82.96;96261.22;5068717;28;20561;-76
2021/03/19 10:25:38;;;;;;;16.87;10.23;;;;;;;2.02;84.00;96258.75;5074444;28;20450;-77
2021/03/19 10:28:16;;;;;;;15.77;10.00;;;;;;;1.85;83.00;96261.69;5067465;28;20470;-76
2021/03/19 10:30:51;;;;;;;14.50;8.77;;;;;;;1.83;82.32;96258.34;5057895;28;20445;-76
2021/03/19 10:33:21;;;;;;;14.90;9.70;;;;;;;2.03;82.26;96257.81;5074547;28;20501;-76
2021/03/19 10:35:55;;;;;;;15.03;10.10;;;;;;;2.25;81.42;96261.53;5069264;28;20462;-76
2021/03/19 10:38:24;;;;;;;15.63;9.73;;;;;;;2.85;80.45;96258.09;5076683;28;20553;-76
2021/03/19 10:41:19;;;;;;;16.93;9.50;;;;;;;2.95;81.33;96251.28;5084731;28;20443;-76
2021/03/19 10:44:03;;;;;;;16.17;10.53;;;;;;;2.92;80.32;96263.63;5046400;28;20565;-76
2021/03/19 10:46:50;;;;;;;15.48;9.48;;;;;;;2.72;79.78;96270.31;5055211;28;20940;-76
2021/03/19 10:49:35;;;;;;;16.13;9.13;;;;;;;3.56;79.90;96268.47;5082647;28;20725;-76
2021/03/19 10:52:08;;;;;;;14.90;9.70;;;;;;;3.73;78.48;96266.25;5076005;28;20533;-76
2021/03/19 10:54:40;;;;;;;11.10;7.72;;;;;;;3.40;79.71;96263.59;5071960;28;20458;-78
2021/03/19 10:57:23;;;;;;;15.70;9.70;;;;;;;3.02;81.16;96264.66;5066235;28;20596;-76
2021/03/19 10:59:51;;;;;;;14.30;9.32;;;;;;;3.61;79.05;96258.53;5054082;28;20039;-76
2021/03/19 11:02:21;;;;;;;13.57;8.70;;;;;;;2.93;78.51;96270.50;5076385;28;20031;-76
2021/03/19 11:04:59;;;;;;;13.63;9.40;;;;;;;3.42;79.65;96266.88;5078457;28;20553;-78
2021/03/19 11:07:25;;;;;;;14.83;9.30;;;;;;;3.14;79.18;96268.13;5067681;28;20040;-76
2021/03/19 11:10:07;;;;;;;15.90;10.07;;;;;;;3.02;80.23;96270.69;5067152;28;20448;-76
2021/03/19 11:12:45;;;;;;;14.13;9.80;;;;;;;3.24;80.60;96269.09;5066250;28;20032;-76
2021/03/19 11:15:16;;;;;;;14.43;9.50;;;;;;;2.91;80.67;96278.41;5072060;28;20027;-77
2021/03/19 11:17:42;;;;;;;17.63;12.63;;;;;;;2.34;82.18;96279.03;5068258;28;20859;-76
2021/03/19 11:20:21;;;;;;;29.90;19.47;;;;;;;2.19;84.71;96295.66;5079204;28;20025;-76
2021/03/19 11:22:48;;;;;;;19.77;13.60;;;;;;;1.97;84.25;96289.34;5071886;28;20520;-76
2021/03/19 11:25:19;;;;;;;11.60;7.97;;;;;;;1.03;85.73;96299.09;5083572;28;20055;-76
2021/03/19 11:27:46;;;;;;;16.40;11.27;;;;;;;1.32;87.42;96292.03;5071878;28;20465;-76
2021/03/19 11:30:24;;;;;;;15.07;9.20;;;;;;;0.91;87.73;96293.78;5080579;28;20455;-76
2021/03/19 11:33:12;;;;;;;14.43;8.53;;;;;;;0.67;88.54;96298.78;5057260;28;20498;-76
2021/03/19 11:35:38;;;;;;;17.43;10.63;;;;;;;0.85;89.45;96295.94;5067168;28;20488;-76
2021/03/19 11:38:30;;;;;;;15.07;9.47;;;;;;;0.81;89.98;96300.50;5070044;28;20468;-76
2021/03/19 11:40:55;;;;;;;14.73;9.23;;;;;;;0.58;89.87;96309.69;5051845;28;20454;-76
2021/03/19 11:43:21;;;;;;;17.60;11.00;;;;;;;0.62;90.32;96313.75;5082454;28;20462;-76
2021/03/19 11:45:47;;;;;;;19.67;13.17;;;;;;;0.64;90.95;96317.09;5061948;28;20041;-76
2021/03/19 11:48:38;;;;;;;20.90;14.00;;;;;;;0.67;91.23;96318.63;5047755;28;20090;-75
2021/03/19 11:51:29;;;;;;;19.27;12.33;;;;;;;0.40;90.76;96326.34;5088080;28;20096;-76
2021/03/19 11:54:00;;;;;;;18.30;12.67;;;;;;;0.52;90.53;96329.94;5059694;28;20466;-76
2021/03/19 11:56:28;;;;;;;27.83;16.73;;;;;;;0.40;90.94;96324.63;5067866;28;20506;-76